createdAt,value
2018-01-14T00:01:04.447Z,0.00
2018-01-14T00:03:32.004Z,0.00
2018-01-14T00:05:59.538Z,0.10
2018-01-14T00:08:27.075Z,0.10
2018-01-14T00:10:54.621Z,0.10
2018-01-14T00:13:22.164Z,0.10
2018-01-14T00:15:49.723Z,-0.10
2018-01-14T00:18:17.246Z,-0.20
2018-01-14T00:20:44.807Z,-0.10
2018-01-14T00:23:13.109Z,-0.10
2018-01-14T00:25:41.611Z,-0.10
2018-01-14T00:28:11.112Z,-0.10
2018-01-14T00:30:38.634Z,-0.20
2018-01-14T00:33:06.209Z,-0.20
2018-01-14T00:35:33.735Z,-0.20
2018-01-14T00:38:01.292Z,-0.30
2018-01-14T00:40:29.805Z,-0.30
2018-01-14T00:42:57.579Z,-0.40
2018-01-14T00:45:25.348Z,-0.30
2018-01-14T00:47:52.909Z,-0.40
2018-01-14T00:50:20.463Z,-0.40
2018-01-14T00:52:48.027Z,-0.40
2018-01-14T00:55:15.560Z,-0.30
2018-01-14T00:57:43.088Z,-0.40
2018-01-14T01:00:10.649Z,-0.40
2018-01-14T01:02:39.143Z,-0.40
2018-01-14T01:05:07.462Z,-0.40
2018-01-14T01:07:35.001Z,-0.40
2018-01-14T01:10:02.563Z,-0.30
2018-01-14T01:12:30.114Z,-0.40
2018-01-14T01:14:57.657Z,-0.40
2018-01-14T01:17:26.142Z,-0.40
2018-01-14T01:19:53.697Z,-0.60
2018-01-14T01:22:21.393Z,-0.60
2018-01-14T01:24:48.919Z,-0.60
2018-01-14T01:27:16.481Z,-0.60
2018-01-14T01:29:44.767Z,-0.70
2018-01-14T01:32:13.094Z,-0.70
2018-01-14T01:34:40.635Z,-0.70
2018-01-14T01:37:09.187Z,-0.80
2018-01-14T01:39:36.711Z,-0.80
2018-01-14T01:42:04.276Z,-0.80
2018-01-14T01:44:31.802Z,-0.80
2018-01-14T01:46:59.325Z,-0.70
2018-01-14T01:49:28.825Z,-0.70
2018-01-14T01:51:56.371Z,-0.80
2018-01-14T01:54:23.926Z,-0.80
2018-01-14T01:56:51.462Z,-0.70
2018-01-14T01:59:19.035Z,-0.70
2018-01-14T02:01:47.543Z,-0.70
2018-01-14T02:04:15.101Z,-0.80
2018-01-14T02:06:42.633Z,-0.80
2018-01-14T02:09:10.340Z,-0.80
2018-01-14T02:11:37.902Z,-0.80
2018-01-14T02:14:05.444Z,-0.90
2018-01-14T02:16:33.006Z,-0.90
2018-01-14T02:19:00.527Z,-0.80
2018-01-14T02:21:28.082Z,-0.80
2018-01-14T02:23:55.606Z,-0.70
2018-01-14T02:26:23.166Z,-0.70
2018-01-14T02:28:50.692Z,-0.70
2018-01-14T02:31:18.232Z,-0.90
2018-01-14T02:33:46.555Z,-1.00
2018-01-14T02:36:14.085Z,-1.00
2018-01-14T02:38:41.659Z,-1.10
2018-01-14T02:41:09.187Z,-1.10
2018-01-14T02:43:36.742Z,-1.10
2018-01-14T02:46:05.054Z,-1.00
2018-01-14T02:48:32.616Z,-1.10
2018-01-14T02:51:01.096Z,-1.00
2018-01-14T02:53:28.642Z,-1.20
2018-01-14T02:55:56.199Z,-1.20
2018-01-14T02:58:23.726Z,-1.20
2018-01-14T03:00:51.282Z,-1.30
2018-01-14T03:03:19.578Z,-1.30
2018-01-14T03:05:47.133Z,-1.30
2018-01-14T03:08:15.432Z,-1.30
2018-01-14T03:10:42.993Z,-1.30
2018-01-14T03:13:10.514Z,-1.30
2018-01-14T03:15:38.994Z,-1.30
2018-01-14T03:18:06.550Z,-1.30
2018-01-14T03:20:34.078Z,-1.20
2018-01-14T03:23:01.641Z,-1.20
2018-01-14T03:25:29.177Z,-1.10
2018-01-14T03:27:56.742Z,-1.10
2018-01-14T03:30:24.287Z,-1.20
2018-01-14T03:32:51.842Z,-1.20
2018-01-14T03:35:19.399Z,-1.20
2018-01-14T03:37:46.927Z,-1.30
2018-01-14T03:40:15.254Z,-1.20
2018-01-14T03:42:42.783Z,-1.20
2018-01-14T03:45:10.342Z,-1.10
2018-01-14T03:47:37.878Z,-1.20
2018-01-14T03:50:06.312Z,-1.20
2018-01-14T03:52:33.835Z,-1.20
2018-01-14T03:55:03.136Z,-1.30
2018-01-14T03:57:31.430Z,-1.30
2018-01-14T03:59:58.986Z,-1.30
2018-01-14T04:02:26.516Z,-1.30
2018-01-14T04:04:54.041Z,-1.30
2018-01-14T04:07:21.593Z,-1.30
2018-01-14T04:09:49.123Z,-1.40
2018-01-14T04:12:16.687Z,-1.30
2018-01-14T04:14:44.223Z,-1.40
2018-01-14T04:17:14.469Z,-1.40
2018-01-14T04:19:42.023Z,-1.40
2018-01-14T04:22:09.590Z,-1.30
2018-01-14T04:24:37.124Z,-1.30
2018-01-14T04:27:04.654Z,-1.20
2018-01-14T04:29:32.209Z,-1.20
2018-01-14T04:31:59.739Z,-1.20
2018-01-14T04:34:29.234Z,-1.30
2018-01-14T04:36:56.774Z,-1.30
2018-01-14T04:39:24.331Z,-1.30
2018-01-14T04:41:51.865Z,-1.40
2018-01-14T04:44:19.422Z,-1.40
2018-01-14T04:46:47.986Z,-1.40
2018-01-14T04:49:15.506Z,-1.40
2018-01-14T04:51:43.062Z,-1.50
2018-01-14T04:54:11.557Z,-1.60
2018-01-14T04:56:39.106Z,-1.50
2018-01-14T04:59:06.628Z,-1.50
2018-01-14T05:01:34.207Z,-1.50
2018-01-14T05:04:01.731Z,-1.40
2018-01-14T05:06:30.987Z,-1.50
2018-01-14T05:08:58.544Z,-1.50
2018-01-14T05:11:26.071Z,-1.50
2018-01-14T05:13:53.629Z,-1.40
2018-01-14T05:16:21.160Z,-1.40
2018-01-14T05:18:49.494Z,-1.30
2018-01-14T05:21:17.026Z,-1.30
2018-01-14T05:23:44.584Z,-1.40
2018-01-14T05:26:12.878Z,-1.50
2018-01-14T05:28:40.469Z,-1.50
2018-01-14T05:31:08.991Z,-1.40
2018-01-14T05:33:37.296Z,-1.50
2018-01-14T05:36:04.856Z,-1.50
2018-01-14T05:38:32.395Z,-1.60
2018-01-14T05:41:00.705Z,-1.60
2018-01-14T05:43:28.281Z,-1.60
2018-01-14T05:45:55.805Z,-1.50
2018-01-14T05:48:23.370Z,-1.50
2018-01-14T05:50:50.931Z,-1.50
2018-01-14T05:53:18.456Z,-1.50
2018-01-14T05:55:45.982Z,-1.50
2018-01-14T05:58:13.537Z,-1.50
2018-01-14T06:00:42.039Z,-1.50
2018-01-14T06:03:09.614Z,-1.50
2018-01-14T06:05:37.907Z,-1.50
2018-01-14T06:08:05.469Z,-1.50
2018-01-14T06:10:32.998Z,-1.50
2018-01-14T06:13:01.591Z,-1.50
2018-01-14T06:15:29.888Z,-1.60
2018-01-14T06:17:57.421Z,-1.60
2018-01-14T06:20:25.806Z,-1.60
2018-01-14T06:22:54.101Z,-1.60
2018-01-14T06:25:21.662Z,-1.60
2018-01-14T06:27:49.255Z,-1.60
2018-01-14T06:30:16.812Z,-1.50
2018-01-14T06:32:44.354Z,-1.60
2018-01-14T06:35:11.914Z,-1.70
2018-01-14T06:37:40.397Z,-1.80
2018-01-14T06:40:07.923Z,-1.80
2018-01-14T06:42:35.486Z,-1.90
2018-01-14T06:45:03.083Z,-1.70
2018-01-14T06:47:31.102Z,-1.70
2018-01-14T06:49:58.634Z,-1.70
2018-01-14T06:52:26.201Z,-1.90
2018-01-14T06:54:53.734Z,-1.80
2018-01-14T06:57:21.290Z,-1.80
2018-01-14T06:59:48.823Z,-1.60
2018-01-14T07:02:16.355Z,-1.50
2018-01-14T07:04:44.674Z,-1.50
2018-01-14T07:07:13.188Z,-1.60
2018-01-14T07:09:40.745Z,-1.60
2018-01-14T07:12:08.274Z,-1.60
2018-01-14T07:14:35.832Z,-1.60
2018-01-14T07:17:03.363Z,-1.50
2018-01-14T07:19:30.924Z,-1.50
2018-01-14T07:21:58.459Z,-1.50
2018-01-14T07:24:26.751Z,-1.60
2018-01-14T07:26:55.071Z,-1.70
2018-01-14T07:29:22.590Z,-1.70
2018-01-14T07:31:50.161Z,-1.60
2018-01-14T07:34:17.690Z,-1.60
2018-01-14T07:36:46.010Z,-1.60
2018-01-14T07:39:13.530Z,-1.70
2018-01-14T07:41:41.082Z,-1.60
2018-01-14T07:44:09.574Z,-1.50
2018-01-14T07:46:37.111Z,-1.50
2018-01-14T07:49:04.662Z,-1.50
2018-01-14T07:51:32.198Z,-1.50
2018-01-14T07:53:59.745Z,-1.40
2018-01-14T07:56:27.274Z,-1.50
2018-01-14T07:58:54.831Z,-1.40
2018-01-14T08:01:22.362Z,-1.50
2018-01-14T08:03:49.895Z,-1.50
2018-01-14T08:06:17.451Z,-1.40
2018-01-14T08:08:44.984Z,-1.40
2018-01-14T08:11:12.544Z,-1.30
2018-01-14T08:13:40.106Z,-1.30
2018-01-14T08:16:09.622Z,-1.20
2018-01-14T08:18:37.159Z,-1.10
2018-01-14T08:21:04.718Z,-1.20
2018-01-14T08:23:32.246Z,-1.10
2018-01-14T08:26:00.562Z,-0.90
2018-01-14T08:28:28.135Z,-0.90
2018-01-14T08:30:55.666Z,-0.90
2018-01-14T08:33:23.225Z,-0.90
2018-01-14T08:35:50.745Z,-0.80
2018-01-14T08:38:18.339Z,-0.70
2018-01-14T08:40:45.902Z,-0.70
2018-01-14T08:43:13.489Z,-0.60
2018-01-14T08:45:41.028Z,-0.60
2018-01-14T08:48:08.595Z,-0.50
2018-01-14T08:50:36.126Z,-0.40
2018-01-14T08:53:04.415Z,0.10
2018-01-14T08:55:31.964Z,0.10
2018-01-14T08:57:59.495Z,0.30
2018-01-14T09:00:27.046Z,0.10
2018-01-14T09:02:55.345Z,0.50
2018-01-14T09:05:22.901Z,0.50
2018-01-14T09:07:50.435Z,0.70
2018-01-14T09:10:18.003Z,0.80
2018-01-14T09:12:45.530Z,0.70
2018-01-14T09:15:13.096Z,0.80
2018-01-14T09:17:40.626Z,1.00
2018-01-14T09:20:08.208Z,1.10
2018-01-14T09:22:35.750Z,1.10
2018-01-14T09:25:03.308Z,1.40
2018-01-14T09:27:31.311Z,1.60
2018-01-14T09:29:58.836Z,1.70
2018-01-14T09:32:28.343Z,1.80
2018-01-14T09:34:56.184Z,1.90
2018-01-14T09:37:24.498Z,2.10
2018-01-14T09:39:52.035Z,2.10
2018-01-14T09:42:20.569Z,2.10
2018-01-14T09:44:49.130Z,1.90
2018-01-14T09:47:16.699Z,2.20
2018-01-14T09:49:44.239Z,2.40
2018-01-14T09:52:12.747Z,2.50
2018-01-14T09:54:41.395Z,2.60
2018-01-14T09:57:08.921Z,2.70
2018-01-14T09:59:37.245Z,2.90
2018-01-14T10:02:04.766Z,2.80
2018-01-14T10:04:32.325Z,2.80
2018-01-14T10:06:59.854Z,2.80
2018-01-14T10:09:27.415Z,2.60
2018-01-14T10:11:55.652Z,2.70
2018-01-14T10:14:23.286Z,2.80
2018-01-14T10:16:51.838Z,3.10
2018-01-14T10:19:20.230Z,2.90
2018-01-14T10:21:48.553Z,2.90
2018-01-14T10:24:16.098Z,2.90
2018-01-14T10:26:43.655Z,2.90
2018-01-14T10:29:11.187Z,3.20
2018-01-14T10:31:39.506Z,3.00
2018-01-14T10:34:07.036Z,3.00
2018-01-14T10:36:34.586Z,3.00
2018-01-14T10:39:02.125Z,2.90
2018-01-14T10:41:31.375Z,3.00
2018-01-14T10:43:58.934Z,3.00
2018-01-14T10:46:27.414Z,3.40
2018-01-14T10:48:54.955Z,3.60
2018-01-14T10:51:22.484Z,3.90
2018-01-14T10:53:50.805Z,4.00
2018-01-14T10:56:18.330Z,4.00
2018-01-14T10:58:45.891Z,4.10
2018-01-14T11:01:14.297Z,3.70
2018-01-14T11:03:41.827Z,3.70
2018-01-14T11:06:09.404Z,3.80
2018-01-14T11:08:37.866Z,3.80
2018-01-14T11:11:06.182Z,3.90
2018-01-14T11:13:33.711Z,3.80
2018-01-14T11:16:02.282Z,3.80
2018-01-14T11:18:30.562Z,4.20
2018-01-14T11:20:58.124Z,4.10
2018-01-14T11:23:25.655Z,4.20
2018-01-14T11:25:53.175Z,4.50
2018-01-14T11:28:22.697Z,4.80
2018-01-14T11:30:50.222Z,4.90
2018-01-14T11:33:17.825Z,5.00
2018-01-14T11:35:46.319Z,4.90
2018-01-14T11:38:13.874Z,5.20
2018-01-14T11:40:41.400Z,5.40
2018-01-14T11:43:08.956Z,5.50
2018-01-14T11:45:37.434Z,5.10
2018-01-14T11:48:04.990Z,5.00
2018-01-14T11:50:32.525Z,4.70
2018-01-14T11:53:00.064Z,4.40
2018-01-14T11:55:28.563Z,4.60
2018-01-14T11:57:57.051Z,4.60
2018-01-14T12:00:24.650Z,5.00
2018-01-14T12:02:52.174Z,5.10
2018-01-14T12:05:19.722Z,5.10
2018-01-14T12:07:47.250Z,5.00
2018-01-14T12:10:14.810Z,4.90
2018-01-14T12:12:43.334Z,4.70
2018-01-14T12:15:11.090Z,5.10
2018-01-14T12:17:38.618Z,5.60
2018-01-14T12:20:07.132Z,5.80
2018-01-14T12:22:34.705Z,5.90
2018-01-14T12:25:02.231Z,6.00
2018-01-14T12:27:32.156Z,5.90
2018-01-14T12:29:59.690Z,5.90
2018-01-14T12:35:22.539Z,5.80
2018-01-14T12:37:50.099Z,5.60
2018-01-14T12:40:17.663Z,5.70
2018-01-14T12:42:45.224Z,5.80
2018-01-14T12:45:12.748Z,6.00
2018-01-14T12:47:40.282Z,6.30
2018-01-14T12:50:07.869Z,6.20
2018-01-14T12:52:36.434Z,5.90
2018-01-14T12:55:04.007Z,6.20
2018-01-14T12:57:32.456Z,6.20
2018-01-14T13:00:02.031Z,6.50
2018-01-14T13:02:29.570Z,6.60
2018-01-14T13:04:57.127Z,6.60
2018-01-14T13:07:24.655Z,6.80
2018-01-14T13:09:52.212Z,6.60
2018-01-14T13:12:19.747Z,6.50
2018-01-14T13:14:48.063Z,6.70
2018-01-14T13:17:15.594Z,6.70
2018-01-14T13:19:43.903Z,6.50
2018-01-14T13:22:11.489Z,6.50
2018-01-14T13:24:39.091Z,6.80
2018-01-14T13:27:06.675Z,7.00
2018-01-14T13:29:34.223Z,7.10
2018-01-14T13:32:01.789Z,6.70
2018-01-14T13:34:29.320Z,6.20
2018-01-14T13:36:57.653Z,6.10
2018-01-14T13:39:25.202Z,6.10
2018-01-14T13:41:53.727Z,5.90
2018-01-14T13:44:21.284Z,5.90
2018-01-14T13:46:48.854Z,6.00
2018-01-14T13:49:17.355Z,6.30
2018-01-14T13:51:44.894Z,6.60
2018-01-14T13:54:13.218Z,6.60
2018-01-14T13:56:40.763Z,6.50
2018-01-14T13:59:08.332Z,6.60
2018-01-14T14:01:35.864Z,6.90
2018-01-14T14:04:03.424Z,6.80
2018-01-14T14:06:31.012Z,6.60
2018-01-14T14:08:58.594Z,6.70
2018-01-14T14:11:26.146Z,7.00
2018-01-14T14:13:53.682Z,7.20
2018-01-14T14:16:21.256Z,7.30
2018-01-14T14:18:48.809Z,7.10
2018-01-14T14:21:16.587Z,7.30
2018-01-14T14:23:44.120Z,7.30
2018-01-14T14:26:11.684Z,7.30
2018-01-14T14:28:39.210Z,6.80
2018-01-14T14:31:07.682Z,6.70
2018-01-14T14:33:36.046Z,6.60
2018-01-14T14:36:04.779Z,6.60
2018-01-14T14:38:32.348Z,6.50
2018-01-14T14:40:59.878Z,6.50
2018-01-14T14:43:27.438Z,6.60
2018-01-14T14:45:55.005Z,6.50
2018-01-14T14:48:22.567Z,6.40
2018-01-14T14:50:51.191Z,6.30
2018-01-14T14:53:18.747Z,6.10
2018-01-14T14:55:46.286Z,6.00
2018-01-14T14:58:13.891Z,5.90
2018-01-14T15:00:41.399Z,5.70
2018-01-14T15:03:08.935Z,5.70
2018-01-14T15:05:36.499Z,5.60
2018-01-14T15:08:04.035Z,5.50
2018-01-14T15:10:31.611Z,5.30
2018-01-14T15:13:00.092Z,5.10
2018-01-14T15:15:28.417Z,4.70
2018-01-14T15:17:56.019Z,4.70
2018-01-14T15:20:24.390Z,4.50
2018-01-14T15:22:52.704Z,4.40
2018-01-14T15:25:20.266Z,4.40
2018-01-14T15:27:47.798Z,4.20
2018-01-14T15:30:16.095Z,4.00
2018-01-14T15:32:43.655Z,4.00
2018-01-14T15:35:11.310Z,3.90
2018-01-14T15:37:40.907Z,3.80
2018-01-14T15:40:08.576Z,3.70
2018-01-14T15:42:36.171Z,3.60
2018-01-14T15:45:03.713Z,3.60
2018-01-14T15:47:32.182Z,3.60
2018-01-14T15:50:00.667Z,3.50
2018-01-14T15:52:28.233Z,3.40
2018-01-14T15:54:55.895Z,3.30
2018-01-14T15:57:23.430Z,3.20
2018-01-14T15:59:50.992Z,3.20
2018-01-14T16:02:18.606Z,3.20
2018-01-14T16:04:46.325Z,3.00
2018-01-14T16:07:14.925Z,3.00
2018-01-14T16:09:43.309Z,2.90
2018-01-14T16:12:10.839Z,2.80
2018-01-14T16:14:40.426Z,2.60
2018-01-14T16:17:08.722Z,2.50
2018-01-14T16:19:36.294Z,2.40
2018-01-14T16:22:03.822Z,2.50
2018-01-14T16:24:32.124Z,2.30
2018-01-14T16:26:59.710Z,2.30
2018-01-14T16:29:27.234Z,2.20
2018-01-14T16:31:54.788Z,2.10
2018-01-14T16:34:22.319Z,2.10
2018-01-14T16:36:49.901Z,2.20
2018-01-14T16:39:17.481Z,2.20
2018-01-14T16:41:45.083Z,2.10
2018-01-14T16:44:12.645Z,2.00
2018-01-14T16:46:40.242Z,2.10
2018-01-14T16:49:07.779Z,2.00
2018-01-14T16:51:35.364Z,2.10
2018-01-14T16:54:03.699Z,1.90
2018-01-14T16:56:31.237Z,1.90
2018-01-14T16:58:58.798Z,1.90
2018-01-14T17:01:26.334Z,1.80
2018-01-14T17:03:53.909Z,1.80
2018-01-14T17:06:21.633Z,1.90
2018-01-14T17:08:49.248Z,1.80
2018-01-14T17:11:16.855Z,1.70
2018-01-14T17:13:44.896Z,1.60
2018-01-14T17:16:14.354Z,1.30
2018-01-14T17:18:42.153Z,1.30
2018-01-14T17:21:09.790Z,1.50
2018-01-14T17:23:37.450Z,1.50
2018-01-14T17:26:05.026Z,1.50
2018-01-14T17:28:32.563Z,1.50
2018-01-14T17:31:00.155Z,1.50
2018-01-14T17:33:27.757Z,1.50
2018-01-14T17:35:55.342Z,1.60
2018-01-14T17:38:22.944Z,1.50
2018-01-14T17:40:51.439Z,1.60
2018-01-14T17:43:19.290Z,1.60
2018-01-14T17:45:47.703Z,1.50
2018-01-14T17:48:15.364Z,1.50
2018-01-14T17:50:42.911Z,1.40
2018-01-14T17:53:11.298Z,1.40
2018-01-14T17:55:41.779Z,1.40
2018-01-14T17:58:09.317Z,1.30
2018-01-14T18:00:36.890Z,1.30
2018-01-14T18:03:04.545Z,1.30
2018-01-14T18:05:32.133Z,1.20
2018-01-14T18:07:59.732Z,1.20
2018-01-14T18:10:28.117Z,1.30
2018-01-14T18:12:55.668Z,1.30
2018-01-14T18:15:23.339Z,1.40
2018-01-14T18:17:51.111Z,1.50
2018-01-14T18:20:18.679Z,1.30
2018-01-14T18:22:46.268Z,1.30
2018-01-14T18:25:13.935Z,1.30
2018-01-14T18:27:41.586Z,1.20
2018-01-14T18:30:10.818Z,1.10
2018-01-14T18:32:38.370Z,1.10
2018-01-14T18:35:06.720Z,1.00
2018-01-14T18:37:34.253Z,1.10
2018-01-14T18:40:01.897Z,1.00
2018-01-14T18:42:29.452Z,0.90
2018-01-14T18:44:57.032Z,1.00
2018-01-14T18:47:24.567Z,0.90
2018-01-14T18:49:54.146Z,0.80
2018-01-14T18:52:21.678Z,0.80
2018-01-14T18:54:50.226Z,0.70
2018-01-14T18:57:17.762Z,0.60
2018-01-14T18:59:46.090Z,0.60
2018-01-14T19:02:13.627Z,0.60
2018-01-14T19:04:41.194Z,0.70
2018-01-14T19:07:08.729Z,0.80
2018-01-14T19:09:36.262Z,0.90
2018-01-14T19:12:03.835Z,0.80
2018-01-14T19:14:32.148Z,0.70
2018-01-14T19:16:59.707Z,0.70
2018-01-14T19:19:27.257Z,0.70
2018-01-14T19:21:54.810Z,0.60
2018-01-14T19:24:22.336Z,0.60
2018-01-14T19:26:49.890Z,0.50
2018-01-14T19:29:18.371Z,0.40
2018-01-14T19:31:46.833Z,0.20
2018-01-14T19:34:14.393Z,0.20
2018-01-14T19:36:41.921Z,0.00
2018-01-14T19:39:09.671Z,0.00
2018-01-14T19:41:38.139Z,0.10
2018-01-14T19:44:06.670Z,0.10
2018-01-14T19:46:34.223Z,0.20
2018-01-14T19:49:03.805Z,0.30
2018-01-14T19:51:31.334Z,0.20
2018-01-14T19:53:59.630Z,0.30
2018-01-14T19:56:27.207Z,0.30
2018-01-14T19:58:54.752Z,0.30
2018-01-14T20:01:23.372Z,0.30
2018-01-14T20:03:50.900Z,0.20
2018-01-14T20:06:18.455Z,0.20
2018-01-14T20:08:45.989Z,0.20
2018-01-14T20:11:14.316Z,0.20
2018-01-14T20:13:41.847Z,0.10
2018-01-14T20:16:09.414Z,0.20
2018-01-14T20:18:37.059Z,0.20
2018-01-14T20:21:05.555Z,0.20
2018-01-14T20:23:33.147Z,0.20
2018-01-14T20:26:00.690Z,0.20
2018-01-14T20:28:28.246Z,0.20
2018-01-14T20:30:55.784Z,0.20
2018-01-14T20:33:23.556Z,0.10
2018-01-14T20:35:51.090Z,-0.20
2018-01-14T20:38:19.427Z,0.00
2018-01-14T20:40:46.957Z,0.00
2018-01-14T20:43:14.484Z,0.10
2018-01-14T20:45:44.048Z,0.10
2018-01-14T20:48:11.582Z,0.10
2018-01-14T20:50:39.138Z,0.30
2018-01-14T20:53:07.632Z,0.30
2018-01-14T20:55:35.376Z,0.20
2018-01-14T20:58:02.944Z,0.20
2018-01-14T21:00:30.531Z,0.10
2018-01-14T21:02:58.052Z,0.10
2018-01-14T21:05:25.621Z,0.20
2018-01-14T21:07:53.182Z,0.20
2018-01-14T21:10:20.712Z,0.10
2018-01-14T21:12:49.384Z,0.10
2018-01-14T21:15:17.076Z,0.00
2018-01-14T21:17:44.644Z,0.00
2018-01-14T21:20:12.198Z,-0.20
2018-01-14T21:22:39.784Z,-0.20
2018-01-14T21:25:07.334Z,-0.10
2018-01-14T21:27:34.867Z,-0.10
2018-01-14T21:30:04.419Z,-0.20
2018-01-14T21:32:32.910Z,0.00
2018-01-14T21:35:02.426Z,-0.20
2018-01-14T21:37:30.237Z,-0.10
2018-01-14T21:39:57.802Z,-0.20
2018-01-14T21:42:25.333Z,-0.20
2018-01-14T21:44:54.854Z,-0.20
2018-01-14T21:47:22.379Z,-0.30
2018-01-14T21:49:49.938Z,-0.20
2018-01-14T21:52:17.479Z,-0.20
2018-01-14T21:54:45.019Z,-0.20
2018-01-14T21:57:12.578Z,-0.20
2018-01-14T21:59:41.078Z,-0.20
2018-01-14T22:02:08.655Z,-0.30
2018-01-14T22:04:36.965Z,-0.20
2018-01-14T22:07:04.580Z,-0.20
2018-01-14T22:09:32.910Z,-0.20
2018-01-14T22:12:00.454Z,-0.20
2018-01-14T22:14:28.017Z,-0.20
2018-01-14T22:16:56.518Z,-0.50
2018-01-14T22:19:24.107Z,-0.40
2018-01-14T22:21:52.832Z,-0.30
2018-01-14T22:24:20.411Z,-0.30
2018-01-14T22:26:47.948Z,-0.20
2018-01-14T22:29:15.628Z,-0.30
2018-01-14T22:31:43.164Z,-0.30
2018-01-14T22:34:10.743Z,-0.40
2018-01-14T22:36:38.271Z,-0.50
2018-01-14T22:39:06.602Z,-0.50
2018-01-14T22:41:34.134Z,-0.50
2018-01-14T22:44:01.695Z,-0.60
2018-01-14T22:46:29.232Z,-0.60
2018-01-14T22:48:56.791Z,-0.60
2018-01-14T22:51:25.090Z,-0.50
2018-01-14T22:53:52.715Z,-0.50
2018-01-14T22:56:20.321Z,-0.50
2018-01-14T22:58:47.863Z,-0.40
2018-01-14T23:01:15.679Z,-0.40
2018-01-14T23:03:44.013Z,-0.50
2018-01-14T23:06:11.567Z,-0.50
2018-01-14T23:08:39.102Z,-0.50
2018-01-14T23:11:07.423Z,-0.40
2018-01-14T23:13:35.308Z,-0.40
2018-01-14T23:16:02.840Z,-0.40
2018-01-14T23:18:30.476Z,-0.40
2018-01-14T23:20:58.942Z,-0.50
2018-01-14T23:23:27.500Z,-0.50
2018-01-14T23:25:55.061Z,-0.50
2018-01-14T23:28:22.610Z,-0.60
2018-01-14T23:30:51.127Z,-0.60
2018-01-14T23:33:19.442Z,-0.60
2018-01-14T23:35:46.971Z,-0.60
2018-01-14T23:38:15.483Z,-0.70
2018-01-14T23:40:43.018Z,-0.60
2018-01-14T23:43:10.547Z,-0.70
2018-01-14T23:45:38.118Z,-0.70
2018-01-14T23:48:05.649Z,-0.70
2018-01-14T23:50:33.996Z,-0.60
2018-01-14T23:53:01.535Z,-0.60
2018-01-14T23:55:29.090Z,-0.50
2018-01-14T23:57:56.692Z,-0.50
